Time;durP1;ratioP1;P1;durP2;ratioP2;P2;SDS_P1;SDS_P2;PMS_P1;PMS_P2;Temp;Humidity;BMP_temperature;BMP_pressure;BME280_temperature;BME280_humidity;BME280_pressure;Samples;Min_cycle;Max_cycle;Signal;HPM_P1;HPM_P2
2022/04/05 00:05:06;;;;;;;9.68;6.00;;;10.90;74.20;;;;;;11016146;32;20186;-69
2022/04/05 00:11:08;;;;;;;6.53;4.57;;;10.90;74.30;;;;;;11001831;32;20052;-70
2022/04/05 00:17:10;;;;;;;7.95;5.72;;;10.90;74.40;;;;;;11016097;32;20030;-70
2022/04/05 00:23:13;;;;;;;11.10;7.43;;;10.80;74.50;;;;;;11019049;32;20030;-69
2022/04/05 00:29:15;;;;;;;7.18;4.97;;;11.00;74.70;;;;;;11018872;32;20026;-69
2022/04/05 00:35:17;;;;;;;6.62;5.00;;;11.00;74.20;;;;;;11018634;32;20050;-70
2022/04/05 00:41:19;;;;;;;6.57;5.45;;;11.00;74.10;;;;;;11018506;32;20027;-69
2022/04/05 00:47:23;;;;;;;8.40;5.68;;;10.90;74.20;;;;;;11017983;32;20014;-70
2022/04/05 00:53:50;;;;;;;7.95;4.78;;;10.70;74.20;;;;;;11018023;32;20049;-70
2022/04/05 00:59:57;;;;;;;8.05;4.40;;;10.70;74.20;;;;;;11004292;32;20315;-70
2022/04/05 01:06:01;;;;;;;9.50;6.22;;;10.60;74.40;;;;;;11016168;32;20061;-70
2022/04/05 01:12:08;;;;;;;6.90;5.18;;;10.50;74.40;;;;;;11007448;26;20030;-69
2022/04/05 01:18:33;;;;;;;7.90;5.93;;;10.50;74.50;;;;;;11004016;32;20052;-69
2022/04/05 01:24:36;;;;;;;10.93;7.62;;;10.50;74.60;;;;;;11013393;32;20023;-69
2022/04/05 01:30:38;;;;;;;8.48;5.07;;;10.40;74.70;;;;;;11003789;32;20022;-70
2022/04/05 01:36:45;;;;;;;10.25;7.12;;;10.30;74.70;;;;;;11017198;32;20027;-70
2022/04/05 01:42:48;;;;;;;11.00;8.03;;;10.20;74.90;;;;;;11016670;32;20015;-69
2022/04/05 01:48:52;;;;;;;8.13;6.40;;;10.10;74.90;;;;;;11016960;32;20045;-70
2022/04/05 01:54:54;;;;;;;7.90;5.95;;;10.10;75.20;;;;;;11017892;32;20027;-69
2022/04/05 02:00:57;;;;;;;8.38;5.93;;;10.10;75.70;;;;;;11022084;32;20338;-69
2022/04/05 02:06:59;;;;;;;8.55;5.57;;;10.20;75.90;;;;;;11021318;32;20435;-69
2022/04/05 02:13:01;;;;;;;10.73;8.57;;;10.10;75.50;;;;;;11019325;32;20019;-69
2022/04/05 02:19:05;;;;;;;13.40;9.10;;;10.10;75.50;;;;;;11023607;32;20447;-70
2022/04/05 02:25:08;;;;;;;9.32;7.75;;;10.20;75.20;;;;;;11023414;32;20030;-70
2022/04/05 02:31:16;;;;;;;7.80;5.40;;;10.20;74.60;;;;;;11021855;32;20030;-70
2022/04/05 02:37:19;;;;;;;7.25;4.62;;;10.10;74.30;;;;;;11021040;32;20056;-72
2022/04/05 02:43:22;;;;;;;8.90;5.65;;;9.80;74.60;;;;;;11022828;32;20030;-72
2022/04/05 02:49:25;;;;;;;9.07;4.68;;;9.70;74.60;;;;;;11018266;32;20022;-72
2022/04/05 02:55:27;;;;;;;6.87;4.93;;;9.70;74.90;;;;;;11007284;32;20069;-72
2022/04/05 03:01:29;;;;;;;7.07;5.18;;;9.40;75.10;;;;;;11022151;32;20023;-72
2022/04/05 03:07:34;;;;;;;10.70;7.12;;;9.20;75.90;;;;;;11017393;32;20410;-72
2022/04/05 03:13:37;;;;;;;8.65;6.40;;;9.30;75.70;;;;;;11019041;32;20027;-72
2022/04/05 03:20:08;;;;;;;8.60;6.43;;;9.50;75.90;;;;;;11018877;32;20029;-72
2022/04/05 03:26:11;;;;;;;9.07;7.00;;;9.60;76.00;;;;;;11007703;32;20374;-72
2022/04/05 03:32:13;;;;;;;10.48;9.10;;;9.60;75.80;;;;;;11021157;32;20026;-72
2022/04/05 03:38:18;;;;;;;9.27;6.60;;;9.60;75.80;;;;;;11020807;32;20031;-72
2022/04/05 03:44:21;;;;;;;9.70;7.07;;;9.50;75.30;;;;;;11016553;32;20354;-72
2022/04/05 03:50:24;;;;;;;9.02;6.20;;;9.30;75.80;;;;;;11020442;32;20026;-73
2022/04/05 03:56:28;;;;;;;12.93;9.18;;;9.20;75.90;;;;;;11016943;32;20030;-72
2022/04/05 04:02:34;;;;;;;10.23;7.15;;;9.20;75.90;;;;;;11020035;32;20019;-72
2022/04/05 04:08:36;;;;;;;8.60;5.78;;;9.20;75.70;;;;;;11019737;32;20038;-72
2022/04/05 04:14:39;;;;;;;9.35;7.20;;;9.20;75.70;;;;;;11019541;32;20052;-72
2022/04/05 04:20:42;;;;;;;9.70;8.23;;;8.80;76.10;;;;;;11017615;32;20338;-72
2022/04/05 04:26:45;;;;;;;19.98;11.05;;;8.90;76.20;;;;;;11017038;32;20049;-72
2022/04/05 04:32:47;;;;;;;12.55;9.73;;;8.90;75.80;;;;;;11019179;32;20038;-72
2022/04/05 04:38:50;;;;;;;9.95;7.10;;;8.80;75.60;;;;;;11018756;32;20428;-72
2022/04/05 04:45:12;;;;;;;11.75;6.97;;;8.70;75.60;;;;;;11013529;32;20330;-72
2022/04/05 04:51:14;;;;;;;9.88;5.10;;;8.50;75.90;;;;;;11014963;32;20026;-72
2022/04/05 04:57:16;;;;;;;14.10;11.82;;;8.30;76.40;;;;;;11018224;32;20026;-72
2022/04/05 05:03:24;;;;;;;10.43;8.10;;;8.60;76.30;;;;;;11013827;32;20390;-72
2022/04/05 05:09:26;;;;;;;16.83;12.05;;;8.80;75.40;;;;;;11013819;32;20034;-72
2022/04/05 05:15:28;;;;;;;36.03;21.77;;;8.90;75.20;;;;;;11017706;32;20084;-72
2022/04/05 05:21:30;;;;;;;31.90;22.13;;;9.20;75.10;;;;;;11015615;32;20346;-72
2022/04/05 05:27:47;;;;;;;24.52;17.42;;;9.30;75.00;;;;;;11016885;32;20023;-72
2022/04/05 05:33:50;;;;;;;20.67;13.07;;;9.40;74.60;;;;;;11011270;32;20053;-72
2022/04/05 05:39:52;;;;;;;12.73;10.82;;;9.50;74.30;;;;;;11025071;32;20389;-72
2022/04/05 05:45:55;;;;;;;14.43;12.30;;;9.60;74.10;;;;;;11024744;32;20049;-72
2022/04/05 05:52:13;;;;;;;9.55;8.43;;;9.70;73.90;;;;;;11007080;32;20053;-72
2022/04/05 05:58:25;;;;;;;11.52;8.00;;;9.80;73.60;;;;;;11010703;32;20032;-72
2022/04/05 06:04:29;;;;;;;9.73;7.28;;;9.90;73.60;;;;;;11024107;32;20058;-72
2022/04/05 06:10:31;;;;;;;11.30;8.75;;;10.00;73.50;;;;;;11022182;32;20321;-72
2022/04/05 06:16:33;;;;;;;12.48;11.18;;;10.10;73.70;;;;;;10981657;32;20042;-74
2022/04/05 06:23:07;;;;;;;15.73;12.23;;;10.30;74.00;;;;;;11000337;32;20035;-75
2022/04/05 06:29:09;;;;;;;13.52;11.88;;;10.60;74.40;;;;;;10982280;32;20057;-75
2022/04/05 06:35:33;;;;;;;11.90;9.93;;;10.80;74.30;;;;;;10986008;32;20018;-75
2022/04/05 06:41:35;;;;;;;24.40;12.07;;;10.90;74.10;;;;;;10985433;32;20061;-75
2022/04/05 06:47:38;;;;;;;15.13;12.13;;;10.70;74.60;;;;;;10984507;32;20035;-75
2022/04/05 06:53:40;;;;;;;13.15;11.75;;;10.80;75.10;;;;;;10984133;32;20034;-76
2022/04/05 06:59:42;;;;;;;14.32;11.95;;;11.10;75.20;;;;;;10983912;32;20034;-75
2022/04/05 07:12:09;;;;;;;11.07;7.55;;;11.60;74.70;;;;;;10863882;32;20035;-75
2022/04/05 07:18:11;;;;;;;12.43;9.07;;;11.20;75.00;;;;;;10851809;32;20035;-75
2022/04/05 07:24:14;;;;;;;13.65;10.05;;;11.30;75.40;;;;;;10871110;32;20036;-75
2022/04/05 07:30:24;;;;;;;15.60;12.63;;;11.10;75.20;;;;;;10871394;32;20057;-75
2022/04/05 07:36:27;;;;;;;10.65;8.07;;;11.00;75.80;;;;;;10900308;32;20058;-75
2022/04/05 07:42:42;;;;;;;14.75;11.85;;;11.20;75.70;;;;;;10963299;32;20038;-76
2022/04/05 07:48:47;;;;;;;25.83;19.90;;;11.30;75.80;;;;;;10981605;32;20022;-76
2022/04/05 07:54:49;;;;;;;14.52;8.98;;;11.60;75.70;;;;;;10980473;32;20035;-75
2022/04/05 08:01:19;;;;;;;27.15;20.00;;;11.70;75.30;;;;;;10980238;32;20315;-76
2022/04/05 08:07:21;;;;;;;11.60;9.35;;;11.70;75.60;;;;;;10981087;32;20428;-76
2022/04/05 08:13:28;;;;;;;16.20;11.75;;;11.60;75.80;;;;;;10980911;32;20057;-76
2022/04/05 08:19:30;;;;;;;18.12;16.02;;;11.60;76.00;;;;;;10977492;32;20041;-75
2022/04/05 08:25:32;;;;;;;12.37;9.15;;;11.70;75.80;;;;;;10979309;32;20068;-70
2022/04/05 08:32:01;;;;;;;32.28;24.48;;;11.80;75.90;;;;;;10979531;32;20027;-71
2022/04/05 08:38:03;;;;;;;26.35;17.52;;;11.70;76.20;;;;;;10998035;32;20409;-71
2022/04/05 08:44:06;;;;;;;12.80;9.18;;;11.80;76.20;;;;;;10995028;32;20060;-71
2022/04/05 08:50:28;;;;;;;20.73;14.65;;;11.90;76.20;;;;;;10987092;32;20062;-71
2022/04/05 08:56:33;;;;;;;14.50;9.15;;;12.00;75.70;;;;;;10974630;32;20053;-71
2022/04/05 09:02:35;;;;;;;13.15;9.25;;;12.20;75.60;;;;;;10965492;32;20030;-70
2022/04/05 09:08:37;;;;;;;18.62;13.18;;;12.20;75.50;;;;;;10983011;32;20335;-70
2022/04/05 09:14:41;;;;;;;13.35;9.95;;;12.20;75.10;;;;;;10497471;27;12205338;-70
2022/04/05 09:20:48;;;;;;;20.55;14.82;;;12.20;74.50;;;;;;10781734;33;20325;-70
2022/04/05 09:26:50;;;;;;;29.02;25.20;;;12.20;74.80;;;;;;10782969;33;20024;-70
2022/04/05 09:32:52;;;;;;;19.25;16.08;;;12.40;74.70;;;;;;10783266;33;20043;-70
2022/04/05 09:39:08;;;;;;;12.98;9.90;;;12.70;74.20;;;;;;10801901;32;20065;-70
2022/04/05 09:45:10;;;;;;;17.98;14.87;;;12.80;73.60;;;;;;10860569;32;20043;-70
2022/04/05 09:51:17;;;;;;;27.00;24.10;;;12.90;73.90;;;;;;10860494;32;20058;-70
2022/04/05 09:57:32;;;;;;;21.52;15.35;;;13.10;72.40;;;;;;10860272;32;20058;-70
2022/04/05 10:03:36;;;;;;;21.27;14.43;;;13.00;71.70;;;;;;10860074;32;20023;-71
2022/04/05 10:09:38;;;;;;;21.45;18.25;;;13.00;71.30;;;;;;10859563;32;20081;-70
2022/04/05 10:15:47;;;;;;;26.00;20.17;;;13.20;71.40;;;;;;10857787;32;20403;-70
2022/04/05 10:21:50;;;;;;;22.70;19.17;;;13.50;70.80;;;;;;10862170;32;20418;-69
2022/04/05 10:27:52;;;;;;;18.37;14.35;;;13.70;70.60;;;;;;10861828;32;20027;-69
2022/04/05 10:34:14;;;;;;;21.17;15.75;;;13.80;70.40;;;;;;10865708;32;20070;-70
2022/04/05 10:40:20;;;;;;;17.15;12.90;;;14.20;69.80;;;;;;10863021;32;20054;-70
2022/04/05 10:46:39;;;;;;;20.27;13.32;;;14.70;69.40;;;;;;10865037;32;20042;-70
2022/04/05 10:52:46;;;;;;;24.25;20.33;;;14.80;67.80;;;;;;10865242;32;20028;-70
2022/04/05 10:58:54;;;;;;;16.02;14.18;;;14.80;67.30;;;;;;10864937;32;20446;-70
2022/04/05 11:05:03;;;;;;;19.40;15.40;;;14.80;67.80;;;;;;10856723;32;20059;-69
2022/04/05 11:11:08;;;;;;;23.95;21.17;;;15.00;65.70;;;;;;10848768;32;20040;-70
2022/04/05 11:17:13;;;;;;;31.48;27.85;;;15.10;65.50;;;;;;10856209;32;20066;-70
2022/04/05 11:23:17;;;;;;;19.00;14.87;;;15.30;65.70;;;;;;10858300;32;20351;-70
2022/04/05 11:29:21;;;;;;;21.50;17.37;;;15.70;66.30;;;;;;10860224;32;20338;-70
2022/04/05 11:35:27;;;;;;;21.35;18.98;;;16.10;65.70;;;;;;10860150;32;20339;-71
2022/04/05 11:41:31;;;;;;;18.08;15.85;;;16.50;65.40;;;;;;10861193;32;20078;-71
2022/04/05 11:47:34;;;;;;;19.65;16.87;;;16.70;63.90;;;;;;10846194;32;20054;-71
2022/04/05 11:53:37;;;;;;;18.62;15.63;;;16.60;63.30;;;;;;10813345;32;20050;-70
2022/04/05 11:59:38;;;;;;;20.37;13.10;;;15.90;64.00;;;;;;10826350;33;20063;-70
2022/04/05 12:05:44;;;;;;;16.83;14.00;;;15.50;65.80;;;;;;10864489;32;20390;-71
2022/04/05 12:11:50;;;;;;;18.60;15.07;;;16.00;65.70;;;;;;10911321;32;20351;-71
2022/04/05 12:18:22;;;;;;;19.85;17.62;;;16.60;64.20;;;;;;10882721;32;20027;-70
2022/04/05 12:24:25;;;;;;;18.90;15.55;;;16.80;62.30;;;;;;10819204;33;20403;-70
2022/04/05 12:30:28;;;;;;;23.45;19.92;;;16.90;62.60;;;;;;10825550;33;20332;-70
2022/04/05 12:36:43;;;;;;;18.67;14.85;;;17.20;61.20;;;;;;10821348;33;20055;-70
2022/04/05 12:42:45;;;;;;;19.55;16.05;;;17.10;58.70;;;;;;10811470;32;20042;-70
2022/04/05 12:48:47;;;;;;;20.15;18.05;;;17.10;59.90;;;;;;10820972;33;20024;-70
2022/04/05 12:55:15;;;;;;;20.00;15.77;;;17.10;59.80;;;;;;10825096;33;20035;-70
2022/04/05 13:08:29;;;;;;;28.70;25.15;;;17.20;58.80;;;;;;10823030;32;20050;-69
2022/04/05 13:14:31;;;;;;;23.50;17.95;;;17.00;58.60;;;;;;10812571;32;20400;-70
2022/04/05 13:20:34;;;;;;;20.75;18.02;;;17.20;58.50;;;;;;10853679;32;20028;-71
2022/04/05 13:26:49;;;;;;;17.12;15.32;;;17.40;58.80;;;;;;10863652;32;20046;-70
2022/04/05 13:33:09;;;;;;;18.52;13.43;;;17.70;59.40;;;;;;10860953;32;20050;-70
2022/04/05 13:39:12;;;;;;;13.68;9.95;;;18.00;58.70;;;;;;10863184;32;20057;-70
2022/04/05 13:45:14;;;;;;;17.12;13.48;;;18.20;59.40;;;;;;10861558;32;20039;-71
2022/04/05 13:51:16;;;;;;;7.62;6.20;;;18.40;59.50;;;;;;10860498;32;20024;-73
2022/04/05 13:57:20;;;;;;;19.83;17.73;;;18.60;58.90;;;;;;10852357;32;20040;-73
2022/04/05 14:03:23;;;;;;;19.92;16.48;;;18.60;58.20;;;;;;10825743;32;20079;-73
2022/04/05 14:09:25;;;;;;;17.67;15.05;;;18.60;57.60;;;;;;10830216;33;20020;-73
2022/04/05 14:15:27;;;;;;;15.27;13.50;;;18.60;57.50;;;;;;10830027;32;20058;-74
2022/04/05 14:21:29;;;;;;;20.12;17.62;;;18.80;58.10;;;;;;10829848;33;20382;-74
2022/04/05 14:27:31;;;;;;;17.45;15.40;;;18.90;57.90;;;;;;10829822;33;20011;-74
2022/04/05 14:33:38;;;;;;;34.55;27.15;;;19.00;57.70;;;;;;10826329;33;20415;-74
2022/04/05 14:39:40;;;;;;;22.02;19.73;;;19.00;56.50;;;;;;10828777;33;20090;-74
2022/04/05 14:46:06;;;;;;;10.50;8.38;;;18.70;56.10;;;;;;10816159;33;20016;-73
2022/04/05 14:52:10;;;;;;;19.67;16.35;;;19.10;56.60;;;;;;10816263;32;20028;-73
2022/04/05 14:58:12;;;;;;;24.60;15.63;;;19.60;56.10;;;;;;10816487;33;20379;-73
2022/04/05 15:04:14;;;;;;;24.75;21.60;;;19.80;55.50;;;;;;10816101;32;20020;-73
2022/04/05 15:10:16;;;;;;;35.90;32.03;;;20.20;54.80;;;;;;10825127;33;20039;-73
2022/04/05 15:16:18;;;;;;;42.17;37.70;;;20.30;54.80;;;;;;10826120;33;20024;-74
2022/04/05 15:22:20;;;;;;;27.60;24.27;;;20.20;54.70;;;;;;10824850;33;20067;-70
2022/04/05 15:28:22;;;;;;;23.50;21.05;;;20.00;55.40;;;;;;10827554;33;20024;-70
2022/04/05 15:34:24;;;;;;;25.73;22.98;;;20.00;55.60;;;;;;10823046;33;20028;-70
2022/04/05 15:40:27;;;;;;;30.40;27.10;;;19.90;56.40;;;;;;10826160;33;20023;-70
2022/04/05 15:46:29;;;;;;;33.30;29.48;;;19.90;56.30;;;;;;10826564;33;20046;-69
2022/04/05 15:52:31;;;;;;;24.12;19.77;;;20.00;56.30;;;;;;10826389;32;20036;-70
2022/04/05 15:58:33;;;;;;;28.38;25.27;;;20.00;56.00;;;;;;10824356;33;20020;-70
2022/04/05 16:04:35;;;;;;;23.20;20.08;;;20.10;55.90;;;;;;10826603;33;20047;-72
2022/04/05 16:10:38;;;;;;;35.45;31.87;;;20.30;55.50;;;;;;10827660;33;20331;-73
2022/04/05 16:16:40;;;;;;;24.17;20.85;;;20.30;55.00;;;;;;10813248;33;20086;-73
2022/04/05 16:23:05;;;;;;;26.75;23.92;;;20.20;55.50;;;;;;10813871;33;20016;-73
2022/04/05 16:29:23;;;;;;;21.48;18.75;;;20.20;55.70;;;;;;10825704;33;20046;-73
2022/04/05 16:35:25;;;;;;;14.20;12.70;;;20.00;55.90;;;;;;10814501;32;20055;-73
2022/04/05 16:41:36;;;;;;;18.60;16.20;;;19.80;56.50;;;;;;10826247;33;20388;-73
2022/04/05 16:47:38;;;;;;;15.77;12.48;;;19.80;56.80;;;;;;10821709;33;20383;-73
2022/04/05 16:53:43;;;;;;;23.00;18.77;;;19.80;57.20;;;;;;10826024;33;20082;-73
2022/04/05 16:59:52;;;;;;;17.58;12.75;;;19.70;57.40;;;;;;10808269;33;20020;-73
2022/04/05 17:05:54;;;;;;;14.40;12.13;;;19.20;58.40;;;;;;10822148;33;20045;-73
2022/04/05 17:11:58;;;;;;;15.70;11.48;;;19.00;58.90;;;;;;10833266;27;20044;-72
2022/04/05 17:18:01;;;;;;;10.60;8.57;;;18.80;58.70;;;;;;10861841;32;20035;-72
2022/04/05 17:24:03;;;;;;;12.23;8.75;;;18.50;59.70;;;;;;10851213;32;20036;-72
2022/04/05 17:30:07;;;;;;;12.13;9.65;;;18.10;60.30;;;;;;10824564;33;20054;-72
2022/04/05 17:36:10;;;;;;;12.13;9.50;;;17.70;61.60;;;;;;10820432;33;20075;-69
2022/04/05 17:42:12;;;;;;;9.23;7.60;;;17.60;62.30;;;;;;10820386;32;20235;-70
2022/04/05 17:48:15;;;;;;;14.87;11.40;;;17.30;62.60;;;;;;10853937;32;20027;-70
2022/04/05 17:54:37;;;;;;;9.27;7.57;;;17.00;63.10;;;;;;10847000;32;20023;-70
2022/04/05 18:01:11;;;;;;;11.57;8.68;;;16.80;63.80;;;;;;11015428;32;20108;-70
2022/04/05 18:07:14;;;;;;;9.07;8.07;;;16.70;64.20;;;;;;11014057;32;20030;-69
2022/04/05 18:13:16;;;;;;;14.52;10.43;;;16.60;64.90;;;;;;11016187;32;20318;-70
2022/04/05 18:19:19;;;;;;;7.87;6.25;;;16.70;65.10;;;;;;11016124;32;20390;-70
2022/04/05 18:25:21;;;;;;;10.25;7.10;;;16.60;65.00;;;;;;11016427;32;20053;-70
2022/04/05 18:31:24;;;;;;;10.77;9.68;;;16.60;65.00;;;;;;11015487;32;20045;-70
2022/04/05 18:37:26;;;;;;;12.50;9.05;;;16.50;65.30;;;;;;10976696;32;20061;-70
2022/04/05 18:43:28;;;;;;;8.73;6.57;;;16.40;65.80;;;;;;10984453;32;20342;-70
2022/04/05 18:49:30;;;;;;;13.55;9.23;;;16.40;65.80;;;;;;10980412;32;20343;-70
2022/04/05 18:55:32;;;;;;;9.23;5.90;;;16.50;66.20;;;;;;10983985;32;20050;-70
2022/04/05 19:01:35;;;;;;;8.90;6.50;;;16.40;65.90;;;;;;10983661;32;20035;-70
2022/04/05 19:07:38;;;;;;;11.30;9.30;;;16.10;66.30;;;;;;10983869;32;20049;-73
2022/04/05 19:14:17;;;;;;;10.03;6.17;;;16.00;66.50;;;;;;10983903;32;20049;-73
2022/04/05 19:20:20;;;;;;;9.45;6.10;;;16.10;66.40;;;;;;10983379;32;20234;-74
2022/04/05 19:26:22;;;;;;;10.45;7.50;;;16.10;66.10;;;;;;10983327;32;20018;-74
2022/04/05 19:32:24;;;;;;;9.45;6.85;;;15.90;66.40;;;;;;10978792;32;20026;-74
2022/04/05 19:38:27;;;;;;;9.75;6.80;;;15.60;67.00;;;;;;10983058;32;20023;-73
2022/04/05 19:44:29;;;;;;;9.25;6.78;;;15.50;67.20;;;;;;10982710;32;20026;-73
2022/04/05 19:50:34;;;;;;;10.23;7.15;;;15.40;67.40;;;;;;10966748;32;20046;-73
2022/04/05 19:56:36;;;;;;;13.30;11.82;;;15.30;67.50;;;;;;10982406;32;20312;-73
2022/04/05 20:02:39;;;;;;;12.07;10.02;;;15.30;67.60;;;;;;10977922;32;20050;-73
2022/04/05 20:09:23;;;;;;;15.18;10.95;;;15.40;67.90;;;;;;10981795;32;20027;-73
2022/04/05 20:15:26;;;;;;;16.70;11.82;;;15.50;67.90;;;;;;10981613;32;20335;-73
2022/04/05 20:21:28;;;;;;;12.63;10.20;;;15.50;67.70;;;;;;10981492;32;20041;-73
2022/04/05 20:27:32;;;;;;;12.98;10.32;;;15.50;67.30;;;;;;10977019;32;20019;-73
2022/04/05 20:33:35;;;;;;;11.57;8.15;;;15.40;67.40;;;;;;10980890;32;20388;-73
2022/04/05 20:39:37;;;;;;;12.02;8.35;;;15.20;67.70;;;;;;10977717;32;20022;-73
2022/04/05 20:45:59;;;;;;;12.32;10.48;;;15.20;67.90;;;;;;10980797;32;20026;-73
2022/04/05 20:52:10;;;;;;;13.55;10.02;;;15.20;68.10;;;;;;10980819;32;20322;-73
2022/04/05 20:58:12;;;;;;;11.73;9.10;;;15.20;68.20;;;;;;10980390;32;20035;-73
2022/04/05 21:04:14;;;;;;;10.38;8.60;;;15.10;68.30;;;;;;10979860;32;20019;-73
2022/04/05 21:10:17;;;;;;;13.13;11.57;;;15.10;68.20;;;;;;10980069;32;20030;-73
2022/04/05 21:16:20;;;;;;;15.98;12.75;;;14.90;68.50;;;;;;10979920;32;20351;-73
2022/04/05 21:22:22;;;;;;;15.25;13.62;;;14.80;68.50;;;;;;10975935;32;20030;-73
2022/04/05 21:29:30;;;;;;;14.38;12.13;;;14.70;68.80;;;;;;10966359;32;20462;-73
2022/04/05 21:34:48;;;;;;;16.62;14.95;;;14.70;68.80;;;;;;10978165;32;20023;-73
2022/04/05 21:40:51;;;;;;;11.65;9.25;;;14.60;69.10;;;;;;10979427;32;20026;-73
2022/04/05 21:46:53;;;;;;;13.75;11.12;;;14.50;69.60;;;;;;10977141;32;20057;-73
2022/04/05 21:52:55;;;;;;;12.70;10.45;;;14.50;70.20;;;;;;10979317;32;20031;-73
2022/04/05 21:58:58;;;;;;;11.05;9.02;;;14.50;70.50;;;;;;10978894;32;20030;-73
2022/04/05 22:05:00;;;;;;;16.20;13.82;;;14.50;70.50;;;;;;10978967;32;20077;-73
2022/04/05 22:11:02;;;;;;;11.93;10.15;;;14.40;70.70;;;;;;10974660;32;20030;-73
2022/04/05 22:17:04;;;;;;;14.75;13.15;;;14.30;70.90;;;;;;10985922;32;20018;-73
2022/04/05 22:23:07;;;;;;;14.75;13.20;;;14.30;71.00;;;;;;10985808;32;20053;-73
2022/04/05 22:29:10;;;;;;;19.02;15.18;;;14.10;70.70;;;;;;10985768;32;20046;-73
2022/04/05 22:35:12;;;;;;;16.95;12.65;;;14.00;70.60;;;;;;10985399;32;20045;-73
2022/04/05 22:41:14;;;;;;;16.15;12.63;;;14.00;70.60;;;;;;10971841;32;20408;-73
2022/04/05 22:47:16;;;;;;;19.12;16.42;;;13.90;70.50;;;;;;10985182;32;20049;-73
2022/04/05 22:53:19;;;;;;;15.18;13.13;;;13.90;71.10;;;;;;10980596;32;20031;-73
2022/04/05 22:59:21;;;;;;;16.42;12.45;;;13.90;71.30;;;;;;10984720;32;20023;-73
2022/04/05 23:05:23;;;;;;;18.92;16.75;;;13.90;71.10;;;;;;10984356;32;20019;-73
2022/04/05 23:11:25;;;;;;;18.15;15.70;;;13.70;71.10;;;;;;10983981;32;20026;-73
2022/04/05 23:17:29;;;;;;;14.00;12.18;;;13.70;71.20;;;;;;10984018;32;20049;-73
2022/04/05 23:23:31;;;;;;;23.83;21.30;;;13.70;71.10;;;;;;10983352;32;20030;-73
2022/04/05 23:29:33;;;;;;;17.08;12.90;;;13.50;71.20;;;;;;10970224;32;20057;-73
2022/04/05 23:35:43;;;;;;;12.95;10.85;;;13.50;71.30;;;;;;10983207;32;20034;-73
2022/04/05 23:41:45;;;;;;;23.15;20.50;;;13.40;71.30;;;;;;10983222;32;20334;-73
2022/04/05 23:47:48;;;;;;;19.62;15.73;;;13.40;71.70;;;;;;10978975;32;20065;-73
2022/04/05 23:53:50;;;;;;;19.25;17.05;;;13.40;71.40;;;;;;10982990;32;20054;-73
2022/04/05 23:59:52;;;;;;;19.35;16.85;;;13.40;71.40;;;;;;10982390;32;20030;-73
